createdAt,value
2022-10-05T00:02:22.494Z,13.61
2022-10-05T00:04:53.018Z,13.61
2022-10-05T00:07:21.665Z,13.57
2022-10-05T00:09:55.367Z,13.56
2022-10-05T00:12:23.553Z,13.42
2022-10-05T00:14:53.533Z,13.51
2022-10-05T00:17:22.682Z,13.45
2022-10-05T00:19:53.886Z,13.40
2022-10-05T00:22:29.999Z,13.50
2022-10-05T00:25:00.101Z,13.34
2022-10-05T00:27:32.722Z,13.41
2022-10-05T00:30:02.612Z,13.35
2022-10-05T00:32:30.198Z,13.29
2022-10-05T00:34:57.416Z,13.14
2022-10-05T00:37:24.059Z,13.22
2022-10-05T00:39:50.907Z,13.11
2022-10-05T00:42:36.727Z,13.15
2022-10-05T00:45:13.567Z,13.04
2022-10-05T00:48:06.346Z,12.95
2022-10-05T00:51:01.189Z,12.92
2022-10-05T00:53:39.798Z,12.94
2022-10-05T00:56:24.508Z,13.12
2022-10-05T00:59:36.826Z,13.10
2022-10-05T01:02:19.252Z,13.14
2022-10-05T01:04:59.785Z,12.92
2022-10-05T01:07:50.804Z,13.12
2022-10-05T01:10:30.651Z,13.05
2022-10-05T01:13:00.211Z,13.04
2022-10-05T01:15:40.098Z,12.78
2022-10-05T01:18:16.739Z,12.73
2022-10-05T01:20:52.213Z,12.84
2022-10-05T01:23:37.301Z,12.93
2022-10-05T01:26:25.424Z,12.76
2022-10-05T01:29:12.237Z,12.86
2022-10-05T01:32:04.458Z,12.86
2022-10-05T01:34:48.672Z,12.95
2022-10-05T01:37:27.429Z,13.08
2022-10-05T01:40:23.607Z,13.11
2022-10-05T01:43:19.818Z,12.94
2022-10-05T01:46:02.046Z,12.94
2022-10-05T01:48:54.772Z,12.85
2022-10-05T01:51:48.968Z,12.65
2022-10-05T01:54:34.000Z,12.67
2022-10-05T01:57:24.708Z,12.75
2022-10-05T02:00:11.900Z,12.60
2022-10-05T02:02:47.459Z,12.81
2022-10-05T02:05:21.477Z,12.64
2022-10-05T02:07:55.696Z,12.71
2022-10-05T02:10:30.685Z,12.65
2022-10-05T02:13:09.526Z,12.79
2022-10-05T02:15:45.832Z,13.08
2022-10-05T02:18:23.344Z,13.25
2022-10-05T02:20:53.068Z,13.27
2022-10-05T02:23:23.799Z,12.95
2022-10-05T02:25:52.749Z,12.71
2022-10-05T02:28:49.150Z,13.03
2022-10-05T02:31:22.612Z,12.95
2022-10-05T02:33:49.741Z,12.98
2022-10-05T02:36:33.569Z,12.78
2022-10-05T02:39:15.769Z,12.65
2022-10-05T02:42:09.913Z,12.60
2022-10-05T02:44:56.288Z,12.70
2022-10-05T02:47:37.376Z,12.54
2022-10-05T02:50:34.360Z,12.49
2022-10-05T02:53:03.848Z,12.51
2022-10-05T02:55:50.496Z,12.38
2022-10-05T02:58:24.839Z,12.72
2022-10-05T03:02:08.079Z,12.74
2022-10-05T03:04:47.747Z,12.35
2022-10-05T03:07:22.938Z,12.47
2022-10-05T03:10:01.487Z,12.39
2022-10-05T03:12:51.438Z,12.36
2022-10-05T03:15:30.661Z,12.56
2022-10-05T03:18:15.363Z,12.39
2022-10-05T03:20:51.412Z,12.44
2022-10-05T03:24:03.264Z,12.56
2022-10-05T03:26:45.645Z,12.53
2022-10-05T03:29:21.068Z,12.41
2022-10-05T03:32:00.356Z,12.33
2022-10-05T03:34:45.756Z,12.30
2022-10-05T03:37:33.757Z,12.06
2022-10-05T03:40:15.425Z,12.04
2022-10-05T03:42:57.989Z,12.22
2022-10-05T03:45:49.583Z,12.20
2022-10-05T03:48:33.269Z,12.07
2022-10-05T03:51:34.872Z,12.14
2022-10-05T03:54:24.766Z,12.23
2022-10-05T03:56:57.492Z,12.06
2022-10-05T03:59:34.643Z,11.94
2022-10-05T04:02:12.822Z,12.13
2022-10-05T04:04:48.240Z,12.25
2022-10-05T04:07:46.772Z,12.26
2022-10-05T04:10:42.014Z,12.26
2022-10-05T04:13:23.671Z,12.18
2022-10-05T04:16:31.376Z,12.33
2022-10-05T04:19:10.294Z,12.16
2022-10-05T04:21:47.813Z,11.93
2022-10-05T04:24:38.387Z,12.04
2022-10-05T04:27:28.004Z,11.88
2022-10-05T04:30:05.353Z,11.87
2022-10-05T04:32:37.620Z,12.09
2022-10-05T04:35:35.429Z,12.16
2022-10-05T04:38:22.074Z,12.00
2022-10-05T04:41:10.769Z,12.03
2022-10-05T04:44:02.637Z,12.08
2022-10-05T04:47:01.730Z,12.19
2022-10-05T04:49:42.754Z,12.15
2022-10-05T04:52:22.606Z,12.09
2022-10-05T04:55:19.321Z,11.85
2022-10-05T04:58:00.554Z,11.86
2022-10-05T05:00:42.831Z,11.75
2022-10-05T05:03:34.682Z,11.93
2022-10-05T05:06:26.213Z,11.84
2022-10-05T05:08:57.917Z,11.99
2022-10-05T05:11:39.251Z,11.91
2022-10-05T05:14:42.574Z,12.01
2022-10-05T05:17:26.396Z,12.00
2022-10-05T05:20:02.202Z,12.11
2022-10-05T05:22:48.908Z,11.85
2022-10-05T05:25:31.619Z,11.88
2022-10-05T05:28:09.046Z,11.85
2022-10-05T05:30:45.933Z,12.05
2022-10-05T05:33:21.184Z,12.13
2022-10-05T05:36:02.446Z,11.98
2022-10-05T05:38:38.927Z,11.73
2022-10-05T05:41:28.472Z,11.66
2022-10-05T05:44:23.809Z,11.60
2022-10-05T05:47:09.698Z,11.65
2022-10-05T05:49:39.909Z,11.96
2022-10-05T05:52:17.256Z,11.77
2022-10-05T05:54:54.741Z,11.56
2022-10-05T05:57:24.529Z,11.59
2022-10-05T06:00:18.752Z,11.37
2022-10-05T06:03:04.081Z,11.43
2022-10-05T06:05:38.380Z,11.66
2022-10-05T06:08:19.745Z,11.77
2022-10-05T06:10:59.039Z,11.88
2022-10-05T06:13:33.252Z,11.71
2022-10-05T06:16:31.393Z,11.63
2022-10-05T06:19:11.276Z,11.88
2022-10-05T06:21:47.478Z,11.90
2022-10-05T06:24:21.565Z,11.94
2022-10-05T06:27:13.442Z,11.71
2022-10-05T06:30:01.538Z,11.56
2022-10-05T06:32:54.289Z,11.53
2022-10-05T06:35:41.380Z,11.72
2022-10-05T06:38:24.454Z,11.59
2022-10-05T06:41:04.457Z,11.69
2022-10-05T06:44:01.582Z,11.64
2022-10-05T06:47:04.119Z,11.97
2022-10-05T06:50:09.867Z,12.42
2022-10-05T06:53:30.264Z,12.14
2022-10-05T06:56:26.330Z,12.26
2022-10-05T06:59:06.209Z,12.16
2022-10-05T07:02:15.069Z,12.36
2022-10-05T07:05:07.752Z,12.57
2022-10-05T07:08:01.228Z,12.51
2022-10-05T07:10:32.841Z,12.29
2022-10-05T07:13:26.790Z,12.17
2022-10-05T07:16:16.583Z,12.20
2022-10-05T07:18:49.788Z,12.34
2022-10-05T07:21:41.820Z,12.56
2022-10-05T07:24:29.120Z,12.68
2022-10-05T07:27:16.262Z,12.90
2022-10-05T07:29:45.966Z,12.93
2022-10-05T07:32:40.054Z,12.77
2022-10-05T07:35:44.062Z,12.84
2022-10-05T07:38:22.844Z,12.82
2022-10-05T07:41:05.083Z,12.70
2022-10-05T07:44:00.405Z,12.75
2022-10-05T07:46:49.982Z,12.92
2022-10-05T07:49:32.524Z,13.28
2022-10-05T07:52:10.678Z,13.33
2022-10-05T07:55:01.968Z,13.64
2022-10-05T07:57:39.440Z,13.83
2022-10-05T08:00:13.729Z,14.03
2022-10-05T08:03:02.708Z,14.45
2022-10-05T08:05:32.737Z,14.43
2022-10-05T08:08:26.120Z,14.51
2022-10-05T08:11:14.808Z,14.73
2022-10-05T08:13:44.449Z,15.03
2022-10-05T08:16:12.686Z,15.05
2022-10-05T08:18:55.230Z,15.11
2022-10-05T08:21:37.925Z,15.61
2022-10-05T08:24:14.974Z,15.61
2022-10-05T08:26:51.721Z,15.68
2022-10-05T08:29:29.707Z,15.69
2022-10-05T08:32:02.411Z,15.77
2022-10-05T08:34:35.183Z,15.95
2022-10-05T08:37:06.930Z,16.19
2022-10-05T08:39:40.965Z,16.03
2022-10-05T08:42:30.509Z,16.47
2022-10-05T08:45:12.737Z,16.86
2022-10-05T08:48:14.975Z,16.88
2022-10-05T08:51:06.618Z,17.38
2022-10-05T08:54:01.145Z,18.27
2022-10-05T08:56:37.985Z,19.24
2022-10-05T08:59:18.067Z,19.20
2022-10-05T09:02:05.662Z,19.28
2022-10-05T09:04:40.703Z,19.66
2022-10-05T09:07:38.393Z,20.37
2022-10-05T09:10:21.373Z,20.10
2022-10-05T09:13:22.579Z,19.07
2022-10-05T09:16:03.318Z,18.62
2022-10-05T09:18:47.341Z,18.39
2022-10-05T09:21:23.482Z,18.17
2022-10-05T09:24:05.375Z,17.63
2022-10-05T09:26:42.847Z,17.33
2022-10-05T09:29:21.689Z,17.24
2022-10-05T09:32:10.780Z,17.10
2022-10-05T09:34:56.162Z,17.53
2022-10-05T09:37:44.193Z,17.68
2022-10-05T09:40:48.615Z,17.78
2022-10-05T09:43:30.159Z,18.00
2022-10-05T09:46:32.935Z,17.94
2022-10-05T09:49:31.684Z,17.84
2022-10-05T09:52:08.612Z,17.86
2022-10-05T09:55:09.077Z,17.82
2022-10-05T09:57:56.934Z,17.81
2022-10-05T10:01:03.632Z,17.92
2022-10-05T10:04:07.890Z,18.08
2022-10-05T10:06:46.501Z,18.27
2022-10-05T10:09:35.313Z,17.77
2022-10-05T10:12:40.862Z,18.00
2022-10-05T10:15:26.449Z,18.29
2022-10-05T10:18:05.642Z,18.59
2022-10-05T10:21:13.176Z,18.61
2022-10-05T10:24:03.926Z,18.64
2022-10-05T10:26:56.136Z,18.47
2022-10-05T10:29:40.852Z,18.25
2022-10-05T10:32:36.282Z,18.60
2022-10-05T10:35:33.653Z,18.52
2022-10-05T10:38:20.094Z,18.33
2022-10-05T10:41:01.965Z,18.59
2022-10-05T10:43:47.142Z,18.40
2022-10-05T10:46:29.150Z,18.46
2022-10-05T10:49:01.780Z,18.60
2022-10-05T10:52:14.610Z,18.77
2022-10-05T10:55:04.337Z,18.86
2022-10-05T10:57:45.434Z,19.11
2022-10-05T11:00:29.065Z,19.15
2022-10-05T11:03:28.064Z,19.25
2022-10-05T11:06:20.944Z,19.23
2022-10-05T11:08:53.293Z,18.79
2022-10-05T11:11:37.963Z,18.61
2022-10-05T11:14:52.287Z,18.88
2022-10-05T11:17:34.001Z,19.02
2022-10-05T11:20:13.550Z,19.15
2022-10-05T11:22:40.216Z,19.33
2022-10-05T11:25:21.970Z,19.24
2022-10-05T11:28:14.127Z,19.25
2022-10-05T11:30:51.260Z,19.14
2022-10-05T11:33:40.343Z,19.32
2022-10-05T11:36:19.362Z,19.28
2022-10-05T11:38:57.102Z,19.51
2022-10-05T11:41:41.301Z,19.60
2022-10-05T11:44:40.051Z,19.60
2022-10-05T11:47:19.380Z,19.45
2022-10-05T11:50:15.690Z,19.53
2022-10-05T11:52:57.869Z,19.56
2022-10-05T11:55:45.545Z,19.61
2022-10-05T11:58:36.736Z,19.51
2022-10-05T12:01:03.250Z,19.65
2022-10-05T12:03:54.403Z,19.55
2022-10-05T12:06:34.076Z,19.45
2022-10-05T12:09:21.302Z,19.46
2022-10-05T12:11:57.996Z,19.52
2022-10-05T12:14:44.835Z,19.52
2022-10-05T12:17:19.392Z,19.51
2022-10-05T12:19:55.318Z,19.63
2022-10-05T12:22:38.289Z,19.59
2022-10-05T12:25:12.553Z,19.61
2022-10-05T12:27:43.643Z,19.70
2022-10-05T12:30:33.670Z,19.64
2022-10-05T12:33:13.873Z,19.44
2022-10-05T12:36:07.814Z,19.51
2022-10-05T12:38:53.160Z,19.70
2022-10-05T12:41:24.978Z,19.72
2022-10-05T12:44:02.460Z,19.75
2022-10-05T13:05:06.851Z,20.01
2022-10-05T13:08:07.933Z,20.08
2022-10-05T13:10:53.835Z,20.14
2022-10-05T13:13:34.912Z,20.07
2022-10-05T13:16:09.852Z,20.28
2022-10-05T13:19:33.854Z,20.24
2022-10-05T13:22:18.711Z,20.13
2022-10-05T13:24:52.752Z,20.43
2022-10-05T13:27:24.606Z,20.59
2022-10-05T13:29:58.122Z,20.35
2022-10-05T13:32:30.545Z,20.66
2022-10-05T13:35:48.597Z,20.72
2022-10-05T13:38:23.807Z,20.92
2022-10-05T13:41:16.537Z,20.81
2022-10-05T13:44:04.680Z,21.05
2022-10-05T13:46:36.789Z,21.07
2022-10-05T13:52:36.969Z,20.81
2022-10-05T13:55:27.061Z,21.13
2022-10-05T13:58:39.303Z,21.36
2022-10-05T14:01:17.418Z,21.47
2022-10-05T14:04:15.935Z,21.54
2022-10-05T14:06:44.896Z,21.35
2022-10-05T14:09:33.290Z,21.58
2022-10-05T14:12:02.749Z,21.64
2022-10-05T14:14:32.190Z,21.84
2022-10-05T14:19:40.730Z,21.94
2022-10-05T14:22:22.293Z,21.90
2022-10-05T14:24:56.498Z,21.87
2022-10-05T14:27:32.945Z,22.06
2022-10-05T14:30:23.529Z,22.11
2022-10-05T14:32:59.050Z,22.34
2022-10-05T14:35:30.825Z,22.27
2022-10-05T14:38:02.123Z,22.46
2022-10-05T14:40:37.263Z,22.51
2022-10-05T14:43:15.798Z,22.40
2022-10-05T14:46:03.372Z,22.20
2022-10-05T14:48:44.490Z,22.10
2022-10-05T14:51:24.287Z,21.93
2022-10-05T14:54:00.728Z,22.28
2022-10-05T14:56:47.299Z,22.24
2022-10-05T14:59:25.957Z,22.29
2022-10-05T15:02:23.338Z,22.44
2022-10-05T15:05:00.051Z,22.32
2022-10-05T15:07:48.171Z,22.14
2022-10-05T15:10:37.710Z,21.66
2022-10-05T15:13:18.408Z,21.70
2022-10-05T15:15:54.625Z,21.74
2022-10-05T15:18:29.603Z,21.47
2022-10-05T15:21:20.937Z,21.63
2022-10-05T15:23:54.348Z,21.64
2022-10-05T15:26:34.144Z,21.58
2022-10-05T15:29:27.615Z,21.50
2022-10-05T15:32:42.201Z,21.39
2022-10-05T15:35:39.378Z,21.38
2022-10-05T15:38:17.059Z,21.30
2022-10-05T15:41:02.269Z,21.20
2022-10-05T15:44:01.180Z,21.17
2022-10-05T15:46:56.427Z,21.08
2022-10-05T15:49:41.488Z,21.23
2022-10-05T15:52:49.338Z,21.18
2022-10-05T15:55:29.851Z,21.08
2022-10-05T15:58:31.110Z,21.00
2022-10-05T16:01:06.245Z,20.97
2022-10-05T16:03:51.316Z,21.00
2022-10-05T16:06:51.714Z,20.96
2022-10-05T16:09:27.749Z,20.92
2022-10-05T16:12:18.614Z,20.99
2022-10-05T16:14:55.710Z,20.89
2022-10-05T16:17:59.425Z,20.76
2022-10-05T16:20:38.399Z,20.64
2022-10-05T16:23:22.905Z,20.51
2022-10-05T16:25:59.858Z,20.40
2022-10-05T16:28:38.275Z,20.42
2022-10-05T16:31:05.994Z,20.34
2022-10-05T16:34:06.496Z,20.65
2022-10-05T16:36:45.258Z,20.62
2022-10-05T16:39:23.815Z,20.44
2022-10-05T16:42:06.433Z,20.55
2022-10-05T16:44:51.996Z,20.35
2022-10-05T16:47:38.043Z,20.15
2022-10-05T16:50:36.977Z,20.08
2022-10-05T16:53:19.903Z,20.05
2022-10-05T16:55:52.216Z,19.98
2022-10-05T16:58:29.867Z,19.98
2022-10-05T17:01:31.015Z,19.93
2022-10-05T17:04:23.610Z,19.87
2022-10-05T17:07:18.037Z,19.80
2022-10-05T17:10:11.706Z,19.82
2022-10-05T17:13:17.161Z,19.74
2022-10-05T17:15:43.973Z,19.73
2022-10-05T17:18:28.297Z,19.91
2022-10-05T17:21:07.752Z,19.95
2022-10-05T17:23:53.454Z,19.80
2022-10-05T17:26:22.901Z,19.66
2022-10-05T17:29:09.327Z,19.64
2022-10-05T17:32:30.366Z,19.84
2022-10-05T17:35:02.427Z,19.94
2022-10-05T17:37:39.852Z,19.90
2022-10-05T17:40:31.341Z,20.00
2022-10-05T17:43:01.307Z,20.28
2022-10-05T17:45:34.081Z,20.22
2022-10-05T17:48:04.171Z,20.21
2022-10-05T17:51:09.665Z,20.17
2022-10-05T17:54:01.116Z,20.14
2022-10-05T17:56:29.251Z,20.14
2022-10-05T17:58:59.657Z,20.13
2022-10-05T18:01:30.881Z,20.16
2022-10-05T18:04:12.645Z,20.20
2022-10-05T18:07:00.590Z,20.26
2022-10-05T18:09:27.738Z,20.27
2022-10-05T18:12:16.078Z,20.27
2022-10-05T18:15:01.120Z,20.17
2022-10-05T18:17:41.987Z,20.20
2022-10-05T18:20:24.034Z,20.15
2022-10-05T18:22:53.509Z,20.15
2022-10-05T18:25:38.121Z,20.12
2022-10-05T18:28:14.079Z,20.17
2022-10-05T18:30:55.515Z,20.10
2022-10-05T18:34:07.436Z,20.13
2022-10-05T18:36:56.457Z,20.00
2022-10-05T18:39:53.261Z,19.89
2022-10-05T18:42:39.313Z,19.96
2022-10-05T18:45:27.022Z,19.99
2022-10-05T18:48:27.921Z,19.96
2022-10-05T18:51:17.772Z,19.92
2022-10-05T18:53:54.561Z,19.70
2022-10-05T18:56:40.746Z,19.90
2022-10-05T18:59:19.232Z,19.87
2022-10-05T19:02:05.567Z,19.92
2022-10-05T19:04:58.384Z,19.87
2022-10-05T19:07:45.951Z,19.84
2022-10-05T19:10:21.800Z,19.83
2022-10-05T19:13:19.493Z,19.79
2022-10-05T19:16:08.337Z,19.68
2022-10-05T19:18:59.851Z,19.79
2022-10-05T19:21:35.256Z,19.72
2022-10-05T19:24:47.978Z,19.66
2022-10-05T19:27:27.008Z,19.60
2022-10-05T19:30:15.095Z,19.64
2022-10-05T19:32:41.781Z,19.69
2022-10-05T19:35:11.458Z,19.73
2022-10-05T19:38:15.201Z,19.66
2022-10-05T19:41:05.417Z,19.59
2022-10-05T19:44:04.524Z,19.61
2022-10-05T19:46:53.740Z,19.61
2022-10-05T19:49:48.008Z,19.61
2022-10-05T19:52:44.238Z,19.59
2022-10-05T19:55:26.306Z,19.49
2022-10-05T19:57:56.070Z,19.55
2022-10-05T20:00:32.466Z,19.53
2022-10-05T20:03:08.504Z,19.53
2022-10-05T20:05:35.251Z,19.46
2022-10-05T20:08:01.914Z,19.46
2022-10-05T20:10:29.650Z,19.39
2022-10-05T20:13:00.731Z,19.41
2022-10-05T20:15:54.295Z,19.42
2022-10-05T20:19:06.678Z,19.40
2022-10-05T20:21:42.245Z,19.41
2022-10-05T20:24:21.161Z,19.39
2022-10-05T20:27:09.512Z,19.41
2022-10-05T20:29:39.727Z,19.38
2022-10-05T20:32:12.378Z,19.38
2022-10-05T20:34:41.469Z,19.32
2022-10-05T20:37:16.448Z,19.33
2022-10-05T20:39:43.570Z,19.28
2022-10-05T20:42:11.366Z,19.24
2022-10-05T20:44:38.550Z,19.27
2022-10-05T20:47:08.665Z,19.24
2022-10-05T20:49:37.078Z,19.20
2022-10-05T20:52:05.295Z,19.24
2022-10-05T20:54:32.005Z,19.18
2022-10-05T20:56:58.709Z,19.16
2022-10-05T20:59:25.822Z,19.14
2022-10-05T21:01:52.735Z,19.10
2022-10-05T21:04:23.898Z,19.07
2022-10-05T21:06:51.017Z,19.04
2022-10-05T21:09:21.212Z,19.02
2022-10-05T21:11:55.405Z,19.06
2022-10-05T21:14:23.645Z,19.05
2022-10-05T21:16:51.282Z,19.03
2022-10-05T21:19:17.966Z,19.04
2022-10-05T21:21:46.180Z,19.01
2022-10-05T21:24:14.707Z,19.02
2022-10-05T21:26:42.639Z,18.93
2022-10-05T21:29:12.805Z,18.95
2022-10-05T21:31:40.527Z,18.91
2022-10-05T21:34:07.540Z,18.97
2022-10-05T21:36:34.734Z,19.04
2022-10-05T21:39:01.439Z,18.98
2022-10-05T21:41:28.272Z,19.04
2022-10-05T21:43:54.928Z,18.99
2022-10-05T21:46:25.277Z,19.04
2022-10-05T21:48:53.812Z,19.05
2022-10-05T21:51:23.813Z,19.09
2022-10-05T21:54:02.685Z,19.02
2022-10-05T21:56:33.179Z,19.08
2022-10-05T21:59:01.910Z,19.04
2022-10-05T22:01:29.050Z,19.02
2022-10-05T22:03:56.870Z,18.88
2022-10-05T22:06:24.804Z,18.63
2022-10-05T22:08:51.669Z,18.61
2022-10-05T22:11:18.365Z,18.75
2022-10-05T22:13:48.622Z,18.78
2022-10-05T22:16:16.965Z,18.79
2022-10-05T22:18:44.255Z,18.82
2022-10-05T22:21:12.902Z,18.79
2022-10-05T22:23:41.328Z,18.79
2022-10-05T22:26:10.936Z,18.73
2022-10-05T22:28:39.703Z,18.80
2022-10-05T22:31:07.964Z,18.86
2022-10-05T22:33:34.733Z,18.78
2022-10-05T22:36:01.438Z,18.68
2022-10-05T22:38:30.285Z,18.79
2022-10-05T22:40:57.343Z,18.70
2022-10-05T22:43:24.895Z,18.71
2022-10-05T22:45:51.615Z,18.68
2022-10-05T22:48:18.645Z,18.59
2022-10-05T22:50:46.427Z,18.62
2022-10-05T22:53:13.720Z,18.36
2022-10-05T22:55:40.645Z,18.47
2022-10-05T22:58:07.391Z,18.48
2022-10-05T23:00:56.387Z,18.18
2022-10-05T23:03:20.665Z,18.03
2022-10-05T23:05:47.286Z,18.26
2022-10-05T23:08:13.890Z,18.20
2022-10-05T23:10:40.540Z,18.12
2022-10-05T23:13:08.668Z,18.05
2022-10-05T23:15:35.785Z,17.92
2022-10-05T23:18:02.381Z,17.92
2022-10-05T23:20:29.078Z,18.00
2022-10-05T23:22:55.671Z,18.21
2022-10-05T23:25:22.305Z,18.02
2022-10-05T23:27:49.223Z,18.24
2022-10-05T23:30:15.830Z,18.10
2022-10-05T23:32:44.882Z,17.91
2022-10-05T23:35:13.180Z,17.83
2022-10-05T23:37:42.874Z,17.89
2022-10-05T23:40:12.808Z,17.89
2022-10-05T23:42:42.690Z,17.71
2022-10-05T23:45:11.482Z,17.66
2022-10-05T23:47:38.941Z,17.61
2022-10-05T23:50:06.940Z,17.64
2022-10-05T23:52:34.407Z,17.73
2022-10-05T23:55:02.671Z,17.65
2022-10-05T23:57:30.956Z,17.66
2022-10-05T23:59:57.605Z,17.62
